createdAt,value
2022-08-03T00:01:25.998Z,71.76
2022-08-03T00:03:53.014Z,71.73
2022-08-03T00:06:19.797Z,71.56
2022-08-03T00:08:47.391Z,71.57
2022-08-03T00:11:14.251Z,71.64
2022-08-03T00:13:41.088Z,71.58
2022-08-03T00:16:08.102Z,72.12
2022-08-03T00:18:34.981Z,72.28
2022-08-03T00:21:03.266Z,72.86
2022-08-03T00:23:50.896Z,72.32
2022-08-03T00:26:17.101Z,73.38
2022-08-03T00:28:43.935Z,72.84
2022-08-03T00:31:13.580Z,72.99
2022-08-03T00:33:59.751Z,73.67
2022-08-03T00:36:28.353Z,73.32
2022-08-03T00:38:56.497Z,73.19
2022-08-03T00:41:23.400Z,73.51
2022-08-03T00:43:50.848Z,73.63
2022-08-03T00:46:21.773Z,73.53
2022-08-03T00:48:50.283Z,73.83
2022-08-03T00:51:18.164Z,74.39
2022-08-03T00:53:46.108Z,74.16
2022-08-03T00:56:15.123Z,74.69
2022-08-03T00:58:44.291Z,74.15
2022-08-03T01:01:12.571Z,74.43
2022-08-03T01:03:39.867Z,74.45
2022-08-03T01:06:19.249Z,74.60
2022-08-03T01:09:06.806Z,75.53
2022-08-03T01:12:03.142Z,75.30
2022-08-03T01:14:38.713Z,76.07
2022-08-03T01:17:13.686Z,76.15
2022-08-03T01:19:41.039Z,75.67
2022-08-03T01:22:18.225Z,75.87
2022-08-03T01:25:14.132Z,75.56
2022-08-03T01:28:30.143Z,75.52
2022-08-03T01:31:02.615Z,76.09
2022-08-03T01:33:39.492Z,76.08
2022-08-03T01:36:14.288Z,76.10
2022-08-03T01:38:47.644Z,76.07
2022-08-03T01:41:20.423Z,76.14
2022-08-03T01:44:26.406Z,76.37
2022-08-03T01:46:40.582Z,76.37
2022-08-03T01:49:18.385Z,76.57
2022-08-03T01:52:03.057Z,76.87
2022-08-03T01:54:43.364Z,77.17
2022-08-03T01:57:11.929Z,77.65
2022-08-03T01:59:42.450Z,77.73
2022-08-03T02:02:15.623Z,78.04
2022-08-03T02:05:01.766Z,78.34
2022-08-03T02:07:30.845Z,78.40
2022-08-03T02:10:00.700Z,78.40
2022-08-03T02:12:31.581Z,78.18
2022-08-03T02:15:00.947Z,78.54
2022-08-03T02:17:40.113Z,78.72
2022-08-03T02:20:13.027Z,78.63
2022-08-03T02:22:42.588Z,79.22
2022-08-03T02:25:12.018Z,79.21
2022-08-03T02:28:15.707Z,79.09
2022-08-03T02:30:51.883Z,79.33
2022-08-03T02:33:33.312Z,79.04
2022-08-03T02:36:02.974Z,79.05
2022-08-03T02:38:38.207Z,79.02
2022-08-03T02:41:13.822Z,79.24
2022-08-03T02:44:06.639Z,79.97
2022-08-03T02:46:38.825Z,79.84
2022-08-03T02:49:50.776Z,80.19
2022-08-03T02:51:58.397Z,79.80
2022-08-03T02:54:28.596Z,80.15
2022-08-03T02:56:59.271Z,80.36
2022-08-03T02:59:31.429Z,80.65
2022-08-03T03:02:01.835Z,80.85
2022-08-03T03:04:32.987Z,80.92
2022-08-03T03:07:04.454Z,81.15
2022-08-03T03:09:41.658Z,81.74
2022-08-03T03:12:13.584Z,81.64
2022-08-03T03:14:41.029Z,81.65
2022-08-03T03:17:12.353Z,81.90
2022-08-03T03:19:40.937Z,82.28
2022-08-03T03:22:08.653Z,82.13
2022-08-03T03:24:36.453Z,82.32
2022-08-03T03:27:04.072Z,82.75
2022-08-03T03:29:32.750Z,83.18
2022-08-03T03:32:09.263Z,82.96
2022-08-03T03:34:37.441Z,82.93
2022-08-03T03:37:05.244Z,82.91
2022-08-03T03:39:32.404Z,83.08
2022-08-03T03:42:00.978Z,83.39
2022-08-03T03:44:31.140Z,83.28
2022-08-03T03:46:58.790Z,83.77
2022-08-03T03:49:27.104Z,84.25
2022-08-03T03:51:55.245Z,83.99
2022-08-03T03:54:22.637Z,83.85
2022-08-03T03:56:52.470Z,83.81
2022-08-03T03:59:19.394Z,83.42
2022-08-03T04:01:46.480Z,83.70
2022-08-03T04:04:31.991Z,83.88
2022-08-03T04:07:17.687Z,84.00
2022-08-03T04:10:14.212Z,83.92
2022-08-03T04:12:50.487Z,83.70
2022-08-03T04:15:23.003Z,83.73
2022-08-03T04:17:53.516Z,83.36
2022-08-03T04:20:22.982Z,83.37
2022-08-03T04:22:52.975Z,83.62
2022-08-03T04:25:23.162Z,83.61
2022-08-03T04:28:08.076Z,83.61
2022-08-03T04:30:47.529Z,83.59
2022-08-03T04:33:16.372Z,83.54
2022-08-03T04:36:01.322Z,83.59
2022-08-03T04:38:32.972Z,83.39
2022-08-03T04:41:01.572Z,83.46
2022-08-03T04:43:32.826Z,83.14
2022-08-03T04:46:00.290Z,83.24
2022-08-03T04:48:28.375Z,82.98
2022-08-03T04:50:55.417Z,82.67
2022-08-03T04:53:22.633Z,82.43
2022-08-03T04:55:50.243Z,82.83
2022-08-03T04:58:17.599Z,82.36
2022-08-03T05:00:45.703Z,82.91
2022-08-03T05:03:23.612Z,82.29
2022-08-03T05:06:02.004Z,81.92
2022-08-03T05:08:46.053Z,81.73
2022-08-03T05:11:17.315Z,81.63
2022-08-03T05:13:45.244Z,81.53
2022-08-03T05:16:13.943Z,81.74
2022-08-03T05:18:42.130Z,81.40
2022-08-03T05:21:16.946Z,81.02
2022-08-03T05:23:45.065Z,80.38
2022-08-03T05:26:12.176Z,80.31
2022-08-03T05:28:39.976Z,79.76
2022-08-03T05:31:18.234Z,79.91
2022-08-03T05:33:45.128Z,79.65
2022-08-03T05:36:12.697Z,79.70
2022-08-03T05:38:39.743Z,79.78
2022-08-03T05:41:22.169Z,79.45
2022-08-03T05:43:52.659Z,78.75
2022-08-03T05:46:20.697Z,78.21
2022-08-03T05:48:48.128Z,77.43
2022-08-03T05:51:15.016Z,77.09
2022-08-03T05:53:43.372Z,76.78
2022-08-03T05:56:15.036Z,76.12
2022-08-03T05:58:47.468Z,75.85
2022-08-03T06:01:18.380Z,75.33
2022-08-03T06:03:46.370Z,75.09
2022-08-03T06:06:13.284Z,74.80
2022-08-03T06:08:41.277Z,74.23
2022-08-03T06:11:09.090Z,73.77
2022-08-03T06:13:36.638Z,73.77
2022-08-03T06:16:03.912Z,73.41
2022-08-03T06:18:31.036Z,72.87
2022-08-03T06:20:58.118Z,72.51
2022-08-03T06:23:54.517Z,72.12
2022-08-03T06:26:27.569Z,71.30
2022-08-03T06:28:54.978Z,70.88
2022-08-03T06:31:32.872Z,70.84
2022-08-03T06:34:34.145Z,70.49
2022-08-03T06:36:52.905Z,69.73
2022-08-03T06:39:23.539Z,68.88
2022-08-03T06:41:51.123Z,68.08
2022-08-03T06:44:18.008Z,67.75
2022-08-03T06:46:44.950Z,67.44
2022-08-03T06:49:11.932Z,66.65
2022-08-03T06:52:37.461Z,66.52
2022-08-03T06:54:25.762Z,66.56
2022-08-03T06:56:52.698Z,66.56
2022-08-03T07:00:10.184Z,66.35
2022-08-03T07:02:07.538Z,63.94
2022-08-03T07:04:34.392Z,64.61
2022-08-03T07:07:01.725Z,64.80
2022-08-03T07:09:28.846Z,65.22
2022-08-03T07:11:55.819Z,64.94
2022-08-03T07:14:23.002Z,65.13
2022-08-03T07:16:49.867Z,65.17
2022-08-03T07:19:17.406Z,65.02
2022-08-03T07:21:45.480Z,65.34
2022-08-03T07:24:12.315Z,65.04
2022-08-03T07:26:39.265Z,64.38
2022-08-03T07:29:10.911Z,63.43
2022-08-03T07:31:42.309Z,62.84
2022-08-03T07:34:09.359Z,62.84
2022-08-03T07:36:36.234Z,62.60
2022-08-03T07:39:15.998Z,61.97
2022-08-03T07:41:46.046Z,61.91
2022-08-03T07:44:13.345Z,61.43
2022-08-03T07:46:40.225Z,60.97
2022-08-03T07:49:07.286Z,61.13
2022-08-03T07:51:34.448Z,60.28
2022-08-03T07:54:01.558Z,59.80
2022-08-03T07:56:29.096Z,59.10
2022-08-03T07:58:56.660Z,57.24
2022-08-03T08:01:23.799Z,56.51
2022-08-03T08:03:53.522Z,56.69
2022-08-03T08:06:21.705Z,55.41
2022-08-03T08:08:48.801Z,54.40
2022-08-03T08:11:15.851Z,53.55
2022-08-03T08:13:42.695Z,52.61
2022-08-03T08:16:09.632Z,53.63
2022-08-03T08:18:36.478Z,53.61
2022-08-03T08:21:03.531Z,53.09
2022-08-03T08:23:42.479Z,52.54
2022-08-03T08:26:11.353Z,52.45
2022-08-03T08:28:38.528Z,51.22
2022-08-03T08:31:05.516Z,50.57
2022-08-03T08:34:02.798Z,49.18
2022-08-03T08:36:21.810Z,48.27
2022-08-03T08:38:48.700Z,48.60
2022-08-03T08:41:16.262Z,46.84
2022-08-03T08:43:43.528Z,46.82
2022-08-03T08:46:23.496Z,46.02
2022-08-03T08:48:51.877Z,44.84
2022-08-03T08:51:20.732Z,42.35
2022-08-03T08:53:53.839Z,42.34
2022-08-03T08:56:25.473Z,41.91
2022-08-03T08:58:56.976Z,41.70
2022-08-03T09:01:23.881Z,42.19
2022-08-03T09:03:51.417Z,41.85
2022-08-03T09:06:18.373Z,41.25
2022-08-03T09:08:45.209Z,40.62
2022-08-03T09:11:12.806Z,38.86
2022-08-03T09:13:39.991Z,37.26
2022-08-03T09:16:21.738Z,37.43
2022-08-03T09:18:52.200Z,36.04
2022-08-03T09:21:32.238Z,35.07
2022-08-03T09:24:03.220Z,34.89
2022-08-03T09:26:31.799Z,33.64
2022-08-03T09:29:10.871Z,33.36
2022-08-03T09:31:46.024Z,31.99
2022-08-03T09:34:17.452Z,31.78
2022-08-03T09:36:50.563Z,31.25
2022-08-03T09:39:19.520Z,30.03
2022-08-03T09:42:07.977Z,29.40
2022-08-03T09:44:45.056Z,27.63
2022-08-03T09:47:14.514Z,29.21
2022-08-03T09:49:56.123Z,30.07
2022-08-03T09:52:38.179Z,29.50
2022-08-03T09:56:30.500Z,29.63
2022-08-03T09:58:07.201Z,28.94
2022-08-03T10:00:54.192Z,29.25
2022-08-03T10:03:21.722Z,28.49
2022-08-03T10:05:48.605Z,27.85
2022-08-03T10:08:17.288Z,27.85
2022-08-03T10:10:46.162Z,27.60
2022-08-03T10:13:20.139Z,27.32
2022-08-03T10:16:21.712Z,26.40
2022-08-03T10:18:34.321Z,26.57
2022-08-03T10:21:07.825Z,26.60
2022-08-03T10:23:35.966Z,26.20
2022-08-03T10:26:04.894Z,25.40
2022-08-03T10:28:42.805Z,25.91
2022-08-03T10:31:13.149Z,25.35
2022-08-03T10:33:50.277Z,26.51
2022-08-03T10:36:23.948Z,25.50
2022-08-03T10:38:53.691Z,25.39
2022-08-03T10:41:23.395Z,25.43
2022-08-03T10:44:04.150Z,25.29
2022-08-03T10:46:31.823Z,25.48
2022-08-03T10:48:59.921Z,24.72
2022-08-03T10:51:32.078Z,23.61
2022-08-03T10:54:01.782Z,24.13
2022-08-03T10:56:50.837Z,23.62
2022-08-03T10:59:46.114Z,22.84
2022-08-03T11:02:14.392Z,23.31
2022-08-03T11:04:42.849Z,23.77
2022-08-03T11:07:25.744Z,24.55
2022-08-03T11:09:55.871Z,23.82
2022-08-03T11:12:32.158Z,24.37
2022-08-03T11:15:06.663Z,24.82
2022-08-03T11:17:46.647Z,24.01
2022-08-03T11:20:47.339Z,23.94
2022-08-03T11:23:15.778Z,22.90
2022-08-03T11:26:17.488Z,23.47
2022-08-03T11:28:46.538Z,22.62
2022-08-03T11:31:47.223Z,23.15
2022-08-03T11:34:11.223Z,21.69
2022-08-03T11:37:16.054Z,20.90
2022-08-03T11:39:46.744Z,19.92
2022-08-03T11:42:22.907Z,19.63
2022-08-03T11:45:00.331Z,19.34
2022-08-03T11:47:30.061Z,18.97
2022-08-03T11:50:00.689Z,20.02
2022-08-03T11:52:33.971Z,19.87
2022-08-03T11:55:01.286Z,19.96
2022-08-03T11:59:10.876Z,19.94
2022-08-03T12:00:28.634Z,19.11
2022-08-03T12:03:06.860Z,19.34
2022-08-03T12:05:48.083Z,18.90
2022-08-03T12:08:31.188Z,18.49
2022-08-03T12:11:01.287Z,18.62
2022-08-03T12:14:44.122Z,18.06
2022-08-03T12:16:25.817Z,17.07
2022-08-03T12:19:04.916Z,16.91
2022-08-03T12:21:31.859Z,15.71
2022-08-03T12:24:04.056Z,16.98
2022-08-03T12:26:43.214Z,16.10
2022-08-03T12:29:21.072Z,16.47
2022-08-03T12:31:49.883Z,15.84
2022-08-03T12:34:16.903Z,16.20
2022-08-03T12:36:57.012Z,16.71
2022-08-03T12:39:26.411Z,16.42
2022-08-03T12:41:54.906Z,18.25
2022-08-03T12:44:35.211Z,17.99
2022-08-03T12:47:03.647Z,17.74
2022-08-03T12:49:48.367Z,17.22
2022-08-03T12:52:16.255Z,17.93
2022-08-03T12:54:53.904Z,17.63
2022-08-03T12:57:21.197Z,17.90
2022-08-03T12:59:55.977Z,17.29
2022-08-03T13:02:25.431Z,16.97
2022-08-03T13:04:53.988Z,17.33
2022-08-03T13:07:22.195Z,16.48
2022-08-03T13:09:56.073Z,17.13
2022-08-03T13:12:25.653Z,16.44
2022-08-03T13:14:55.680Z,16.28
2022-08-03T13:17:22.869Z,16.24
2022-08-03T13:19:50.992Z,17.55
2022-08-03T13:22:20.096Z,17.05
2022-08-03T13:24:49.035Z,16.45
2022-08-03T13:28:09.862Z,16.34
2022-08-03T13:30:07.858Z,17.33
2022-08-03T13:32:35.084Z,18.12
2022-08-03T13:35:04.927Z,17.31
2022-08-03T13:37:32.490Z,17.14
2022-08-03T13:40:02.689Z,17.06
2022-08-03T13:42:32.359Z,17.21
2022-08-03T13:45:00.597Z,16.25
2022-08-03T13:47:27.902Z,16.43
2022-08-03T13:50:01.133Z,16.48
2022-08-03T13:52:34.258Z,16.28
2022-08-03T13:55:02.385Z,15.67
2022-08-03T13:58:02.507Z,16.41
2022-08-03T14:00:27.614Z,16.21
2022-08-03T14:03:02.920Z,16.02
2022-08-03T14:05:33.001Z,15.59
2022-08-03T14:08:05.822Z,15.82
2022-08-03T14:10:37.326Z,15.97
2022-08-03T14:13:05.198Z,15.60
2022-08-03T14:15:32.240Z,15.38
2022-08-03T14:18:04.293Z,15.26
2022-08-03T14:20:37.303Z,16.10
2022-08-03T14:23:07.058Z,16.69
2022-08-03T14:25:44.180Z,16.73
2022-08-03T14:28:24.991Z,16.02
2022-08-03T14:30:53.855Z,16.47
2022-08-03T14:33:21.002Z,16.36
2022-08-03T14:35:49.099Z,16.87
2022-08-03T14:38:16.479Z,17.13
2022-08-03T14:40:43.854Z,17.96
2022-08-03T14:43:11.117Z,18.19
2022-08-03T14:45:39.346Z,16.99
2022-08-03T14:50:30.973Z,17.41
2022-08-03T14:50:55.213Z,17.96
2022-08-03T14:53:22.520Z,17.83
2022-08-03T14:55:51.589Z,17.52
2022-08-03T14:58:21.508Z,18.35
2022-08-03T15:00:50.029Z,17.57
2022-08-03T15:03:20.564Z,17.04
2022-08-03T15:05:47.741Z,17.64
2022-08-03T15:08:14.708Z,17.24
2022-08-03T15:10:44.807Z,17.34
2022-08-03T15:13:17.686Z,17.25
2022-08-03T15:15:44.663Z,18.01
2022-08-03T15:18:11.598Z,18.37
2022-08-03T15:20:45.035Z,18.45
2022-08-03T15:23:14.202Z,18.60
2022-08-03T15:26:28.086Z,18.69
2022-08-03T15:28:27.959Z,19.91
2022-08-03T15:30:54.892Z,19.08
2022-08-03T15:33:21.911Z,18.82
2022-08-03T15:35:49.881Z,18.33
2022-08-03T15:38:16.944Z,18.49
2022-08-03T15:40:44.051Z,19.63
2022-08-03T15:43:11.087Z,19.75
2022-08-03T15:45:38.071Z,21.61
2022-08-03T15:48:06.064Z,21.08
2022-08-03T15:50:33.052Z,22.14
2022-08-03T15:52:59.907Z,23.21
2022-08-03T15:55:27.311Z,24.21
2022-08-03T15:59:10.876Z,24.75
2022-08-03T16:00:42.683Z,25.29
2022-08-03T16:03:10.618Z,25.80
2022-08-03T16:05:37.576Z,26.44
2022-08-03T16:08:07.126Z,26.72
2022-08-03T16:10:37.371Z,26.97
2022-08-03T16:13:04.270Z,27.11
2022-08-03T16:15:31.121Z,26.82
2022-08-03T16:17:58.122Z,26.93
2022-08-03T16:20:30.827Z,26.69
2022-08-03T16:23:04.144Z,27.85
2022-08-03T16:25:41.935Z,27.72
2022-08-03T16:28:13.932Z,27.88
2022-08-03T16:30:42.994Z,29.58
2022-08-03T16:33:11.276Z,28.47
2022-08-03T16:35:44.372Z,29.13
2022-08-03T16:38:14.192Z,28.73
2022-08-03T16:40:45.874Z,28.35
2022-08-03T16:43:18.178Z,28.53
2022-08-03T16:45:46.868Z,28.05
2022-08-03T16:48:15.147Z,28.01
2022-08-03T16:50:42.313Z,28.17
2022-08-03T16:53:15.715Z,27.61
2022-08-03T16:55:53.463Z,27.64
2022-08-03T16:58:41.161Z,27.97
2022-08-03T17:01:24.120Z,29.25
2022-08-03T17:04:02.726Z,29.56
2022-08-03T17:06:37.172Z,30.32
2022-08-03T17:09:10.065Z,30.54
2022-08-03T17:11:46.514Z,31.39
2022-08-03T17:14:28.563Z,32.06
2022-08-03T17:17:01.072Z,32.23
2022-08-03T17:19:32.565Z,32.68
2022-08-03T17:22:10.627Z,33.08
2022-08-03T17:24:41.395Z,33.45
2022-08-03T17:28:41.728Z,33.40
2022-08-03T17:30:10.402Z,33.85
2022-08-03T17:32:42.271Z,33.92
2022-08-03T17:35:10.613Z,34.53
2022-08-03T17:37:57.947Z,34.50
2022-08-03T17:40:24.735Z,35.01
2022-08-03T17:42:52.670Z,35.30
2022-08-03T17:45:20.346Z,35.52
2022-08-03T17:47:57.077Z,35.91
2022-08-03T17:50:37.081Z,36.71
2022-08-03T17:53:15.103Z,37.67
2022-08-03T17:55:52.053Z,37.74
2022-08-03T17:58:55.039Z,38.38
2022-08-03T18:02:26.519Z,39.17
2022-08-03T18:05:15.955Z,39.64
2022-08-03T18:07:59.532Z,39.93
2022-08-03T18:10:35.095Z,39.93
2022-08-03T18:13:11.240Z,40.68
2022-08-03T18:15:43.740Z,41.52
2022-08-03T18:18:14.635Z,41.78
2022-08-03T18:20:45.463Z,41.94
2022-08-03T18:23:25.318Z,42.19
2022-08-03T18:26:02.583Z,42.99
2022-08-03T18:28:32.307Z,43.42
2022-08-03T18:31:05.570Z,43.37
2022-08-03T18:34:19.088Z,43.47
2022-08-03T18:36:30.179Z,43.59
2022-08-03T18:39:02.350Z,44.06
2022-08-03T18:41:32.961Z,45.19
2022-08-03T18:44:07.923Z,45.37
2022-08-03T18:46:50.095Z,46.08
2022-08-03T18:49:39.978Z,47.42
2022-08-03T18:52:17.762Z,47.57
2022-08-03T18:55:20.243Z,48.17
2022-08-03T18:58:17.795Z,47.81
2022-08-03T19:01:59.738Z,49.38
2022-08-03T19:04:34.062Z,50.09
2022-08-03T19:07:11.061Z,51.61
2022-08-03T19:09:54.845Z,51.04
2022-08-03T19:12:37.406Z,51.05
2022-08-03T19:15:13.270Z,50.92
2022-08-03T19:17:50.087Z,50.66
2022-08-03T19:20:28.219Z,50.75
2022-08-03T19:22:56.956Z,50.72
2022-08-03T19:25:34.413Z,50.11
2022-08-03T19:28:06.109Z,50.10
2022-08-03T19:30:46.433Z,50.75
2022-08-03T19:33:21.316Z,50.33
2022-08-03T19:35:55.090Z,50.21
2022-08-03T19:38:38.463Z,49.53
2022-08-03T19:41:14.403Z,50.00
2022-08-03T19:43:57.549Z,50.39
2022-08-03T19:46:30.314Z,50.96
2022-08-03T19:49:10.579Z,50.51
2022-08-03T19:52:00.807Z,49.65
2022-08-03T19:54:53.579Z,49.03
2022-08-03T19:57:25.407Z,48.36
2022-08-03T19:59:54.901Z,48.45
2022-08-03T20:02:27.229Z,48.29
2022-08-03T20:04:57.403Z,47.93
2022-08-03T20:07:26.228Z,48.10
2022-08-03T20:09:57.065Z,48.57
2022-08-03T20:12:29.017Z,48.75
2022-08-03T20:14:58.158Z,48.71
2022-08-03T20:17:56.289Z,48.74
2022-08-03T20:20:25.812Z,49.27
2022-08-03T20:22:57.618Z,50.01
2022-08-03T20:25:48.855Z,50.08
2022-08-03T20:28:35.102Z,51.36
2022-08-03T20:31:17.693Z,51.17
2022-08-03T20:33:48.802Z,51.76
2022-08-03T20:36:18.430Z,51.92
2022-08-03T20:38:48.167Z,52.23
2022-08-03T20:41:19.089Z,52.54
2022-08-03T20:43:49.299Z,52.73
2022-08-03T20:46:30.006Z,52.92
2022-08-03T20:49:03.780Z,53.03
2022-08-03T20:51:53.317Z,53.92
2022-08-03T20:54:29.118Z,54.11
2022-08-03T20:56:58.270Z,54.50
2022-08-03T20:59:35.063Z,54.73
2022-08-03T21:02:19.768Z,55.06
2022-08-03T21:05:03.019Z,55.15
2022-08-03T21:08:04.021Z,55.66
2022-08-03T21:10:29.536Z,56.05
2022-08-03T21:13:22.687Z,56.21
2022-08-03T21:16:06.434Z,56.58
2022-08-03T21:18:50.269Z,56.85
2022-08-03T21:21:19.560Z,58.00
2022-08-03T21:23:51.293Z,58.02
2022-08-03T21:26:20.226Z,58.90
2022-08-03T21:28:52.090Z,58.86
2022-08-03T21:31:24.790Z,59.48
2022-08-03T21:33:58.145Z,59.46
2022-08-03T21:36:28.636Z,59.73
2022-08-03T21:38:58.016Z,59.52
2022-08-03T21:41:32.204Z,60.32
2022-08-03T21:44:01.003Z,60.26
2022-08-03T21:46:35.057Z,61.64
2022-08-03T21:50:04.785Z,61.24
2022-08-03T21:51:54.507Z,61.56
2022-08-03T21:54:23.935Z,61.57
2022-08-03T21:56:51.402Z,61.42
2022-08-03T21:59:20.259Z,61.70
2022-08-03T22:01:49.393Z,62.21
2022-08-03T22:04:53.600Z,62.27
2022-08-03T22:07:09.037Z,62.95
2022-08-03T22:09:36.880Z,61.96
2022-08-03T22:12:04.595Z,61.08
2022-08-03T22:14:34.627Z,60.69
2022-08-03T22:17:06.240Z,60.48
2022-08-03T22:19:33.675Z,60.74
2022-08-03T22:22:06.096Z,60.63
2022-08-03T22:24:36.550Z,61.35
2022-08-03T22:27:23.251Z,61.48
2022-08-03T22:29:52.805Z,62.40
2022-08-03T22:32:20.505Z,62.78
2022-08-03T22:34:49.761Z,63.76
2022-08-03T22:37:19.238Z,63.95
2022-08-03T22:39:46.978Z,63.69
2022-08-03T22:42:14.121Z,64.49
2022-08-03T22:44:40.965Z,64.09
2022-08-03T22:47:09.767Z,64.02
2022-08-03T22:49:37.882Z,63.99
2022-08-03T22:52:06.182Z,64.32
2022-08-03T22:54:34.066Z,64.29
2022-08-03T22:57:01.169Z,64.35
2022-08-03T22:59:38.855Z,64.69
2022-08-03T23:02:21.766Z,65.05
2022-08-03T23:04:56.640Z,65.82
2022-08-03T23:07:35.705Z,66.10
2022-08-03T23:10:09.635Z,65.93
2022-08-03T23:12:39.694Z,66.67
2022-08-03T23:15:10.060Z,66.22
2022-08-03T23:17:57.480Z,66.59
2022-08-03T23:20:26.979Z,66.72
2022-08-03T23:22:57.874Z,67.90
2022-08-03T23:25:25.302Z,68.42
2022-08-03T23:28:05.715Z,68.24
2022-08-03T23:30:37.404Z,68.12
2022-08-03T23:33:04.630Z,67.97
2022-08-03T23:36:18.787Z,68.08
2022-08-03T23:38:37.155Z,68.09
2022-08-03T23:41:05.177Z,69.56
2022-08-03T23:46:21.738Z,68.98
2022-08-03T23:48:48.738Z,69.49
2022-08-03T23:51:37.929Z,69.87
2022-08-03T23:54:28.792Z,70.12
2022-08-03T23:57:23.058Z,70.10
